sensor_id;sensor_type;location;lat;lon;timestamp;pressure;altitude;pressure_sealevel;temperature;humidity
7333;BME280;3707;43.618;25.342;2024-01-30T00:00:24;102602.13;;;2.93;100.00
7333;BME280;3707;43.618;25.342;2024-01-30T00:02:51;102688.88;;;3.47;100.00
7333;BME280;3707;43.618;25.342;2024-01-30T00:05:18;102693.63;;;3.43;100.00
7333;BME280;3707;43.618;25.342;2024-01-30T00:07:46;102695.19;;;3.51;100.00
7333;BME280;3707;43.618;25.342;2024-01-30T00:10:13;102673.25;;;3.44;100.00
7333;BME280;3707;43.618;25.342;2024-01-30T00:12:40;102694.81;;;3.57;100.00
7333;BME280;3707;43.618;25.342;2024-01-30T00:15:07;102700.19;;;3.60;100.00
7333;BME280;3707;43.618;25.342;2024-01-30T00:17:35;102694.41;;;3.62;100.00
7333;BME280;3707;43.618;25.342;2024-01-30T00:20:02;102703.78;;;3.62;100.00
7333;BME280;3707;43.618;25.342;2024-01-30T00:22:31;102676.56;;;3.43;100.00
7333;BME280;3707;43.618;25.342;2024-01-30T00:24:59;102699.16;;;3.47;100.00
7333;BME280;3707;43.618;25.342;2024-01-30T00:27:26;102716.69;;;3.33;100.00
7333;BME280;3707;43.618;25.342;2024-01-30T00:29:53;102685.72;;;3.11;100.00
7333;BME280;3707;43.618;25.342;2024-01-30T00:32:19;102695.25;;;3.22;100.00
7333;BME280;3707;43.618;25.342;2024-01-30T00:34:48;102615.97;;;2.85;100.00
7333;BME280;3707;43.618;25.342;2024-01-30T00:37:14;102698.22;;;3.27;100.00
7333;BME280;3707;43.618;25.342;2024-01-30T00:39:42;102694.75;;;3.26;100.00
7333;BME280;3707;43.618;25.342;2024-01-30T00:42:10;102653.13;;;2.90;100.00
7333;BME280;3707;43.618;25.342;2024-01-30T00:44:37;102664.53;;;2.93;100.00
7333;BME280;3707;43.618;25.342;2024-01-30T00:47:04;102692.03;;;3.15;100.00
7333;BME280;3707;43.618;25.342;2024-01-30T00:49:31;102699.03;;;3.07;100.00
7333;BME280;3707;43.618;25.342;2024-01-30T00:51:58;102685.72;;;3.11;100.00
7333;BME280;3707;43.618;25.342;2024-01-30T00:54:25;102687.03;;;3.06;100.00
7333;BME280;3707;43.618;25.342;2024-01-30T00:56:52;102685.22;;;3.05;100.00
7333;BME280;3707;43.618;25.342;2024-01-30T00:59:20;102687.28;;;3.09;100.00
7333;BME280;3707;43.618;25.342;2024-01-30T01:01:46;102682.66;;;3.05;100.00
7333;BME280;3707;43.618;25.342;2024-01-30T01:04:13;102673.13;;;2.94;100.00
7333;BME280;3707;43.618;25.342;2024-01-30T01:06:40;102691.75;;;3.12;100.00
7333;BME280;3707;43.618;25.342;2024-01-30T01:09:09;102665.22;;;3.11;100.00
7333;BME280;3707;43.618;25.342;2024-01-30T01:11:36;102691.44;;;3.37;100.00
7333;BME280;3707;43.618;25.342;2024-01-30T01:14:04;102679.03;;;3.42;100.00
7333;BME280;3707;43.618;25.342;2024-01-30T01:16:32;102677.63;;;3.45;100.00
7333;BME280;3707;43.618;25.342;2024-01-30T01:18:59;102688.13;;;3.48;100.00
7333;BME280;3707;43.618;25.342;2024-01-30T01:21:26;102687.38;;;3.49;100.00
7333;BME280;3707;43.618;25.342;2024-01-30T01:23:53;102679.44;;;3.57;100.00
7333;BME280;3707;43.618;25.342;2024-01-30T01:26:20;102667.09;;;3.53;100.00
7333;BME280;3707;43.618;25.342;2024-01-30T01:28:46;102661.97;;;3.53;100.00
7333;BME280;3707;43.618;25.342;2024-01-30T01:31:13;102674.75;;;3.42;100.00
7333;BME280;3707;43.618;25.342;2024-01-30T01:33:41;102637.34;;;3.24;100.00
7333;BME280;3707;43.618;25.342;2024-01-30T01:36:08;102660.66;;;3.37;100.00
7333;BME280;3707;43.618;25.342;2024-01-30T01:38:35;102648.75;;;3.38;100.00
7333;BME280;3707;43.618;25.342;2024-01-30T01:41:02;102643.47;;;3.26;100.00
7333;BME280;3707;43.618;25.342;2024-01-30T01:43:29;102642.97;;;3.30;100.00
7333;BME280;3707;43.618;25.342;2024-01-30T01:45:56;102649.38;;;3.35;100.00
7333;BME280;3707;43.618;25.342;2024-01-30T01:48:22;102602.81;;;3.00;100.00
7333;BME280;3707;43.618;25.342;2024-01-30T01:50:53;102676.22;;;3.49;100.00
7333;BME280;3707;43.618;25.342;2024-01-30T01:53:20;102674.75;;;3.42;100.00
7333;BME280;3707;43.618;25.342;2024-01-30T01:55:48;102646.28;;;3.29;100.00
7333;BME280;3707;43.618;25.342;2024-01-30T01:58:15;102678.63;;;3.47;100.00
7333;BME280;3707;43.618;25.342;2024-01-30T02:00:43;102672.75;;;3.48;100.00
7333;BME280;3707;43.618;25.342;2024-01-30T02:03:10;102680.19;;;3.45;100.00
7333;BME280;3707;43.618;25.342;2024-01-30T02:05:38;102689.13;;;3.30;100.00
7333;BME280;3707;43.618;25.342;2024-01-30T02:08:08;102668.22;;;3.36;100.00
7333;BME280;3707;43.618;25.342;2024-01-30T02:10:35;102660.41;;;3.34;100.00
7333;BME280;3707;43.618;25.342;2024-01-30T02:13:02;102684.81;;;3.49;100.00
7333;BME280;3707;43.618;25.342;2024-01-30T02:15:30;102685.81;;;3.52;100.00
7333;BME280;3707;43.618;25.342;2024-01-30T02:17:57;102683.00;;;3.48;100.00
7333;BME280;3707;43.618;25.342;2024-01-30T02:20:24;102687.72;;;3.44;100.00
7333;BME280;3707;43.618;25.342;2024-01-30T02:22:54;102684.66;;;3.48;100.00
7333;BME280;3707;43.618;25.342;2024-01-30T02:25:30;102684.91;;;3.51;100.00
7333;BME280;3707;43.618;25.342;2024-01-30T02:27:57;102679.94;;;3.53;100.00
7333;BME280;3707;43.618;25.342;2024-01-30T02:30:23;102684.56;;;3.57;100.00
7333;BME280;3707;43.618;25.342;2024-01-30T02:32:50;102682.34;;;3.51;100.00
7333;BME280;3707;43.618;25.342;2024-01-30T02:35:17;102649.09;;;3.22;100.00
7333;BME280;3707;43.618;25.342;2024-01-30T02:37:44;102683.75;;;3.47;100.00
7333;BME280;3707;43.618;25.342;2024-01-30T02:40:12;102683.34;;;3.43;100.00
7333;BME280;3707;43.618;25.342;2024-01-30T02:42:39;102597.31;;;2.96;100.00
7333;BME280;3707;43.618;25.342;2024-01-30T02:45:08;102681.69;;;3.54;100.00
7333;BME280;3707;43.618;25.342;2024-01-30T02:47:35;102592.94;;;3.05;100.00
7333;BME280;3707;43.618;25.342;2024-01-30T02:50:01;102682.09;;;3.58;100.00
7333;BME280;3707;43.618;25.342;2024-01-30T02:52:28;102677.47;;;3.54;100.00
7333;BME280;3707;43.618;25.342;2024-01-30T02:54:55;102647.84;;;3.37;100.00
7333;BME280;3707;43.618;25.342;2024-01-30T02:57:23;102670.81;;;3.56;100.00
7333;BME280;3707;43.618;25.342;2024-01-30T02:59:50;102670.44;;;3.52;100.00
7333;BME280;3707;43.618;25.342;2024-01-30T03:02:17;102661.97;;;3.53;100.00
7333;BME280;3707;43.618;25.342;2024-01-30T03:04:44;102666.56;;;3.46;100.00
7333;BME280;3707;43.618;25.342;2024-01-30T03:07:10;102662.34;;;3.47;100.00
7333;BME280;3707;43.618;25.342;2024-01-30T03:09:38;102638.09;;;3.33;100.00
7333;BME280;3707;43.618;25.342;2024-01-30T03:12:05;102640.16;;;3.27;100.00
7333;BME280;3707;43.618;25.342;2024-01-30T03:14:33;102657.59;;;3.52;100.00
7333;BME280;3707;43.618;25.342;2024-01-30T03:17:00;102656.94;;;3.44;100.00
7333;BME280;3707;43.618;25.342;2024-01-30T03:19:27;102655.53;;;3.47;100.00
7333;BME280;3707;43.618;25.342;2024-01-30T03:21:53;102652.97;;;3.47;100.00
7333;BME280;3707;43.618;25.342;2024-01-30T03:24:20;102607.31;;;3.23;100.00
7333;BME280;3707;43.618;25.342;2024-01-30T03:26:47;102652.22;;;3.38;100.00
7333;BME280;3707;43.618;25.342;2024-01-30T03:29:14;102629.09;;;3.28;100.00
7333;BME280;3707;43.618;25.342;2024-01-30T03:31:42;102624.38;;;3.23;100.00
7333;BME280;3707;43.618;25.342;2024-01-30T03:34:09;102647.84;;;3.37;100.00
7333;BME280;3707;43.618;25.342;2024-01-30T03:36:35;102643.22;;;3.33;100.00
7333;BME280;3707;43.618;25.342;2024-01-30T03:39:02;102640.16;;;3.17;100.00
7333;BME280;3707;43.618;25.342;2024-01-30T03:41:30;102645.28;;;3.17;100.00
7333;BME280;3707;43.618;25.342;2024-01-30T03:43:56;102646.78;;;3.15;100.00
7333;BME280;3707;43.618;25.342;2024-01-30T03:46:23;102636.91;;;3.10;100.00
7333;BME280;3707;43.618;25.342;2024-01-30T03:48:52;102656.28;;;3.16;100.00
7333;BME280;3707;43.618;25.342;2024-01-30T03:51:18;102650.50;;;3.09;100.00
7333;BME280;3707;43.618;25.342;2024-01-30T03:53:45;102643.19;;;3.03;100.00
7333;BME280;3707;43.618;25.342;2024-01-30T03:56:12;102640.34;;;3.00;100.00
7333;BME280;3707;43.618;25.342;2024-01-30T03:58:39;102656.63;;;3.00;100.00
7333;BME280;3707;43.618;25.342;2024-01-30T04:01:06;102611.63;;;2.84;100.00
7333;BME280;3707;43.618;25.342;2024-01-30T04:03:33;102648.44;;;3.05;100.00
7333;BME280;3707;43.618;25.342;2024-01-30T04:06:01;102641.66;;;3.15;100.00
7333;BME280;3707;43.618;25.342;2024-01-30T04:08:28;102614.47;;;2.97;100.00
7333;BME280;3707;43.618;25.342;2024-01-30T04:10:55;102619.75;;;3.09;100.00
7333;BME280;3707;43.618;25.342;2024-01-30T04:13:22;102645.66;;;3.32;100.00
7333;BME280;3707;43.618;25.342;2024-01-30T04:15:49;102641.41;;;3.32;100.00
7333;BME280;3707;43.618;25.342;2024-01-30T04:18:15;102558.97;;;2.77;100.00
7333;BME280;3707;43.618;25.342;2024-01-30T04:20:42;102666.06;;;3.30;100.00
7333;BME280;3707;43.618;25.342;2024-01-30T04:23:10;102652.06;;;3.27;100.00
7333;BME280;3707;43.618;25.342;2024-01-30T04:25:37;102667.56;;;3.28;100.00
7333;BME280;3707;43.618;25.342;2024-01-30T04:28:04;102673.25;;;3.34;100.00
7333;BME280;3707;43.618;25.342;2024-01-30T04:30:31;102634.38;;;3.20;100.00
7333;BME280;3707;43.618;25.342;2024-01-30T04:32:58;102644.88;;;3.33;100.00
7333;BME280;3707;43.618;25.342;2024-01-30T04:35:24;102661.56;;;3.38;100.00
7333;BME280;3707;43.618;25.342;2024-01-30T04:37:52;102667.63;;;3.48;99.74
7333;BME280;3707;43.618;25.342;2024-01-30T04:40:20;102671.19;;;3.50;99.85
7333;BME280;3707;43.618;25.342;2024-01-30T04:42:47;102643.72;;;3.19;99.82
7333;BME280;3707;43.618;25.342;2024-01-30T04:45:13;102668.22;;;3.36;100.00
7333;BME280;3707;43.618;25.342;2024-01-30T04:47:40;102673.81;;;3.02;100.00
7333;BME280;3707;43.618;25.342;2024-01-30T04:50:08;102668.28;;;3.07;100.00
7333;BME280;3707;43.618;25.342;2024-01-30T04:52:35;102670.97;;;2.98;100.00
7333;BME280;3707;43.618;25.342;2024-01-30T04:55:02;102658.47;;;2.83;100.00
7333;BME280;3707;43.618;25.342;2024-01-30T04:57:30;102678.28;;;3.04;100.00
7333;BME280;3707;43.618;25.342;2024-01-30T04:59:59;102649.66;;;2.89;100.00
7333;BME280;3707;43.618;25.342;2024-01-30T05:02:25;102670.75;;;3.06;100.00
7333;BME280;3707;43.618;25.342;2024-01-30T05:04:52;102667.75;;;2.91;100.00
7333;BME280;3707;43.618;25.342;2024-01-30T05:07:19;102670.03;;;2.88;100.00
7333;BME280;3707;43.618;25.342;2024-01-30T05:09:46;102675.84;;;2.95;100.00
7333;BME280;3707;43.618;25.342;2024-01-30T05:12:13;102675.94;;;2.97;100.00
7333;BME280;3707;43.618;25.342;2024-01-30T05:14:41;102677.75;;;2.98;100.00
7333;BME280;3707;43.618;25.342;2024-01-30T05:17:08;102675.94;;;2.97;100.00
7333;BME280;3707;43.618;25.342;2024-01-30T05:19:35;102674.19;;;2.96;100.00
7333;BME280;3707;43.618;25.342;2024-01-30T05:22:02;102681.50;;;3.02;100.00
7333;BME280;3707;43.618;25.342;2024-01-30T05:24:29;102683.88;;;2.90;100.00
7333;BME280;3707;43.618;25.342;2024-01-30T05:26:55;102504.66;;;1.93;100.00
7333;BME280;3707;43.618;25.342;2024-01-30T05:29:22;102668.91;;;2.94;100.00
7333;BME280;3707;43.618;25.342;2024-01-30T05:31:51;102682.00;;;3.08;100.00
7333;BME280;3707;43.618;25.342;2024-01-30T05:34:17;102669.28;;;2.89;100.00
7333;BME280;3707;43.618;25.342;2024-01-30T05:36:44;102663.28;;;2.98;100.00
7333;BME280;3707;43.618;25.342;2024-01-30T05:39:11;102691.50;;;3.09;100.00
7333;BME280;3707;43.618;25.342;2024-01-30T05:41:38;102677.53;;;3.05;100.00
7333;BME280;3707;43.618;25.342;2024-01-30T05:44:05;102675.22;;;3.08;100.00
7333;BME280;3707;43.618;25.342;2024-01-30T05:46:33;102695.50;;;3.25;100.00
7333;BME280;3707;43.618;25.342;2024-01-30T05:49:01;102689.97;;;3.11;100.00
7333;BME280;3707;43.618;25.342;2024-01-30T05:51:28;102701.34;;;3.04;100.00
7333;BME280;3707;43.618;25.342;2024-01-30T05:53:55;102700.59;;;3.05;100.00
7333;BME280;3707;43.618;25.342;2024-01-30T05:56:22;102696.13;;;3.13;100.00
7333;BME280;3707;43.618;25.342;2024-01-30T05:58:49;102698.06;;;3.15;100.00
7333;BME280;3707;43.618;25.342;2024-01-30T06:01:16;102693.19;;;3.18;100.00
7333;BME280;3707;43.618;25.342;2024-01-30T06:03:43;102695.00;;;3.19;100.00
7333;BME280;3707;43.618;25.342;2024-01-30T06:06:12;102698.88;;;3.44;100.00
7333;BME280;3707;43.618;25.342;2024-01-30T06:08:39;102693.19;;;3.18;100.00
7333;BME280;3707;43.618;25.342;2024-01-30T06:11:06;102697.41;;;3.18;100.00
7333;BME280;3707;43.618;25.342;2024-01-30T06:13:36;102698.78;;;3.04;100.00
7333;BME280;3707;43.618;25.342;2024-01-30T06:16:03;102700.09;;;3.09;100.00
7333;BME280;3707;43.618;25.342;2024-01-30T06:18:31;102698.66;;;2.92;100.00
7333;BME280;3707;43.618;25.342;2024-01-30T06:20:57;102701.03;;;3.20;100.00
7333;BME280;3707;43.618;25.342;2024-01-30T06:23:25;102698.88;;;3.44;100.00
7333;BME280;3707;43.618;25.342;2024-01-30T06:25:52;102705.81;;;3.45;100.00
7333;BME280;3707;43.618;25.342;2024-01-30T06:28:19;102701.72;;;3.47;100.00
7333;BME280;3707;43.618;25.342;2024-01-30T06:30:46;102712.22;;;3.40;100.00
7333;BME280;3707;43.618;25.342;2024-01-30T06:33:13;102712.97;;;3.29;100.00
7333;BME280;3707;43.618;25.342;2024-01-30T06:35:40;102711.06;;;3.47;100.00
7333;BME280;3707;43.618;25.342;2024-01-30T06:38:07;102710.72;;;3.53;100.00
7333;BME280;3707;43.618;25.342;2024-01-30T06:40:36;102718.00;;;3.58;100.00
7333;BME280;3707;43.618;25.342;2024-01-30T06:43:03;102719.94;;;3.61;100.00
7333;BME280;3707;43.618;25.342;2024-01-30T06:45:30;102719.97;;;3.71;100.00
7333;BME280;3707;43.618;25.342;2024-01-30T06:47:57;102715.59;;;3.80;100.00
7333;BME280;3707;43.618;25.342;2024-01-30T06:50:24;102677.72;;;3.57;100.00
7333;BME280;3707;43.618;25.342;2024-01-30T06:52:50;102701.50;;;3.85;100.00
7333;BME280;3707;43.618;25.342;2024-01-30T06:55:18;102707.38;;;3.74;100.00
7333;BME280;3707;43.618;25.342;2024-01-30T06:57:46;102725.59;;;3.77;100.00
7333;BME280;3707;43.618;25.342;2024-01-30T07:00:14;102720.47;;;3.77;100.00
7333;BME280;3707;43.618;25.342;2024-01-30T07:02:41;102716.88;;;3.85;100.00
7333;BME280;3707;43.618;25.342;2024-01-30T07:05:08;102707.38;;;3.84;100.00
7333;BME280;3707;43.618;25.342;2024-01-30T07:07:35;102721.50;;;3.79;100.00
7333;BME280;3707;43.618;25.342;2024-01-30T07:10:02;102704.19;;;3.76;100.00
7333;BME280;3707;43.618;25.342;2024-01-30T07:12:30;102718.66;;;4.16;99.78
7333;BME280;3707;43.618;25.342;2024-01-30T07:14:58;102721.06;;;4.25;98.33
7333;BME280;3707;43.618;25.342;2024-01-30T07:17:25;102725.84;;;4.30;100.00
7333;BME280;3707;43.618;25.342;2024-01-30T07:19:52;102715.59;;;4.62;100.00
7333;BME280;3707;43.618;25.342;2024-01-30T07:22:19;102725.50;;;4.58;97.32
7333;BME280;3707;43.618;25.342;2024-01-30T07:24:46;102693.94;;;4.48;95.48
7333;BME280;3707;43.618;25.342;2024-01-30T07:27:14;102711.41;;;4.53;93.83
7333;BME280;3707;43.618;25.342;2024-01-30T07:29:43;102712.69;;;4.47;92.57
7333;BME280;3707;43.618;25.342;2024-01-30T07:32:11;102722.63;;;4.75;93.93
7333;BME280;3707;43.618;25.342;2024-01-30T07:34:37;102681.22;;;4.50;91.19
7333;BME280;3707;43.618;25.342;2024-01-30T07:37:04;102734.88;;;4.67;90.63
7333;BME280;3707;43.618;25.342;2024-01-30T07:39:33;102579.66;;;3.49;92.13
7333;BME280;3707;43.618;25.342;2024-01-30T07:42:00;102731.97;;;4.32;94.58
7333;BME280;3707;43.618;25.342;2024-01-30T07:44:27;102731.44;;;4.46;96.68
7333;BME280;3707;43.618;25.342;2024-01-30T07:46:54;102527.28;;;3.58;96.19
7333;BME280;3707;43.618;25.342;2024-01-30T07:49:23;102711.66;;;4.87;94.92
7333;BME280;3707;43.618;25.342;2024-01-30T07:51:50;102716.03;;;6.09;100.00
7333;BME280;3707;43.618;25.342;2024-01-30T07:54:17;102698.25;;;5.45;100.00
7333;BME280;3707;43.618;25.342;2024-01-30T07:56:44;102730.66;;;5.43;100.00
7333;BME280;3707;43.618;25.342;2024-01-30T07:59:10;102731.78;;;5.46;98.61
7333;BME280;3707;43.618;25.342;2024-01-30T08:01:37;102690.47;;;5.33;95.89
7333;BME280;3707;43.618;25.342;2024-01-30T08:04:04;102746.38;;;5.36;95.96
7333;BME280;3707;43.618;25.342;2024-01-30T08:06:32;102727.00;;;5.51;95.61
7333;BME280;3707;43.618;25.342;2024-01-30T08:08:59;102714.63;;;5.35;95.01
7333;BME280;3707;43.618;25.342;2024-01-30T08:11:26;102642.72;;;4.40;95.76
7333;BME280;3707;43.618;25.342;2024-01-30T08:13:55;102736.38;;;5.07;95.94
7333;BME280;3707;43.618;25.342;2024-01-30T08:16:21;102705.13;;;5.13;95.63
7333;BME280;3707;43.618;25.342;2024-01-30T08:18:48;102727.53;;;5.25;94.59
7333;BME280;3707;43.618;25.342;2024-01-30T08:21:15;102696.91;;;5.07;93.61
7333;BME280;3707;43.618;25.342;2024-01-30T08:23:43;102729.94;;;5.12;91.56
7333;BME280;3707;43.618;25.342;2024-01-30T08:26:10;102627.53;;;4.75;90.79
7333;BME280;3707;43.618;25.342;2024-01-30T08:28:37;102604.66;;;4.78;91.27
7333;BME280;3707;43.618;25.342;2024-01-30T08:31:04;102538.00;;;4.26;85.56
7333;BME280;3707;43.618;25.342;2024-01-30T08:33:30;102691.34;;;4.90;84.83
7333;BME280;3707;43.618;25.342;2024-01-30T08:35:57;102717.75;;;5.31;83.83
7333;BME280;3707;43.618;25.342;2024-01-30T08:38:24;102736.91;;;5.03;86.42
7333;BME280;3707;43.618;25.342;2024-01-30T08:40:52;102668.34;;;4.92;93.89
7333;BME280;3707;43.618;25.342;2024-01-30T08:43:19;102721.75;;;4.96;86.73
7333;BME280;3707;43.618;25.342;2024-01-30T08:45:46;102722.84;;;4.88;85.64
7333;BME280;3707;43.618;25.342;2024-01-30T08:48:13;102668.25;;;4.48;84.97
7333;BME280;3707;43.618;25.342;2024-01-30T08:50:39;102730.34;;;4.75;86.20
7333;BME280;3707;43.618;25.342;2024-01-30T08:53:06;102724.56;;;5.09;86.40
7333;BME280;3707;43.618;25.342;2024-01-30T08:55:33;102728.22;;;5.44;83.53
7333;BME280;3707;43.618;25.342;2024-01-30T08:58:01;102734.06;;;5.54;82.02
7333;BME280;3707;43.618;25.342;2024-01-30T09:00:30;102701.63;;;5.56;80.48
7333;BME280;3707;43.618;25.342;2024-01-30T09:02:56;102682.78;;;5.67;79.79
7333;BME280;3707;43.618;25.342;2024-01-30T09:05:23;102713.66;;;5.67;79.97
7333;BME280;3707;43.618;25.342;2024-01-30T09:07:50;102712.34;;;5.28;80.80
7333;BME280;3707;43.618;25.342;2024-01-30T09:10:17;102652.94;;;4.82;82.78
7333;BME280;3707;43.618;25.342;2024-01-30T09:12:43;102720.44;;;5.33;81.57
7333;BME280;3707;43.618;25.342;2024-01-30T09:15:12;102700.53;;;5.64;80.11
7333;BME280;3707;43.618;25.342;2024-01-30T09:17:38;102709.28;;;5.87;78.86
7333;BME280;3707;43.618;25.342;2024-01-30T09:20:06;102721.75;;;5.83;77.38
7333;BME280;3707;43.618;25.342;2024-01-30T09:22:33;102690.75;;;5.48;77.46
7333;BME280;3707;43.618;25.342;2024-01-30T09:25:00;102722.31;;;5.57;79.06
7333;BME280;3707;43.618;25.342;2024-01-30T09:27:27;102714.28;;;5.64;79.91
7333;BME280;3707;43.618;25.342;2024-01-30T09:29:54;102685.34;;;5.78;92.41
7333;BME280;3707;43.618;25.342;2024-01-30T09:32:22;102693.59;;;5.96;90.07
7333;BME280;3707;43.618;25.342;2024-01-30T09:34:49;102717.63;;;6.18;84.34
7333;BME280;3707;43.618;25.342;2024-01-30T09:37:16;102713.94;;;6.26;81.13
7333;BME280;3707;43.618;25.342;2024-01-30T09:39:43;102614.13;;;5.56;79.90
7333;BME280;3707;43.618;25.342;2024-01-30T09:42:17;102649.81;;;5.96;79.25
7333;BME280;3707;43.618;25.342;2024-01-30T09:44:50;102716.59;;;5.83;81.91
7333;BME280;3707;43.618;25.342;2024-01-30T09:47:18;102669.13;;;5.79;80.80
7333;BME280;3707;43.618;25.342;2024-01-30T09:49:46;102706.59;;;5.97;79.39
7333;BME280;3707;43.618;25.342;2024-01-30T09:52:14;102695.19;;;6.17;78.04
7333;BME280;3707;43.618;25.342;2024-01-30T09:54:41;102689.88;;;6.37;77.10
7333;BME280;3707;43.618;25.342;2024-01-30T09:57:09;102699.44;;;5.93;78.81
7333;BME280;3707;43.618;25.342;2024-01-30T09:59:36;102673.25;;;6.11;78.23
7333;BME280;3707;43.618;25.342;2024-01-30T10:02:03;102671.34;;;6.08;78.83
7333;BME280;3707;43.618;25.342;2024-01-30T10:04:30;102638.16;;;5.44;80.62
7333;BME280;3707;43.618;25.342;2024-01-30T10:07:00;102692.47;;;5.92;80.89
7333;BME280;3707;43.618;25.342;2024-01-30T10:09:28;102631.16;;;5.32;80.43
7333;BME280;3707;43.618;25.342;2024-01-30T10:11:54;102691.59;;;5.92;80.30
7333;BME280;3707;43.618;25.342;2024-01-30T10:14:21;102696.41;;;5.87;81.06
7333;BME280;3707;43.618;25.342;2024-01-30T10:16:48;102621.63;;;5.53;78.04
7333;BME280;3707;43.618;25.342;2024-01-30T10:19:16;102685.56;;;6.15;77.68
7333;BME280;3707;43.618;25.342;2024-01-30T10:21:42;102641.44;;;6.22;76.73
7333;BME280;3707;43.618;25.342;2024-01-30T10:24:11;102674.94;;;6.80;75.49
7333;BME280;3707;43.618;25.342;2024-01-30T10:26:39;102586.78;;;6.14;73.66
7333;BME280;3707;43.618;25.342;2024-01-30T10:29:06;102669.59;;;5.74;77.68
7333;BME280;3707;43.618;25.342;2024-01-30T10:31:32;102640.88;;;6.14;89.44
7333;BME280;3707;43.618;25.342;2024-01-30T10:33:59;102673.78;;;6.88;91.66
7333;BME280;3707;43.618;25.342;2024-01-30T10:36:28;102647.25;;;6.54;91.43
7333;BME280;3707;43.618;25.342;2024-01-30T10:38:59;102538.31;;;5.74;86.37
7333;BME280;3707;43.618;25.342;2024-01-30T10:41:27;102674.25;;;6.82;82.02
7333;BME280;3707;43.618;25.342;2024-01-30T10:44:02;102649.28;;;6.70;72.96
7333;BME280;3707;43.618;25.342;2024-01-30T10:46:31;102617.25;;;6.55;71.36
7333;BME280;3707;43.618;25.342;2024-01-30T10:48:59;102638.34;;;6.85;70.48
7333;BME280;3707;43.618;25.342;2024-01-30T10:51:27;102676.50;;;7.14;70.17
7333;BME280;3707;43.618;25.342;2024-01-30T10:53:56;102642.78;;;6.63;71.69
7333;BME280;3707;43.618;25.342;2024-01-30T10:56:23;102634.69;;;5.89;76.56
7333;BME280;3707;43.618;25.342;2024-01-30T10:58:53;102636.41;;;6.12;78.29
7333;BME280;3707;43.618;25.342;2024-01-30T11:01:21;102653.97;;;6.64;76.93
7333;BME280;3707;43.618;25.342;2024-01-30T11:03:49;102633.59;;;6.67;72.56
7333;BME280;3707;43.618;25.342;2024-01-30T11:06:17;102652.63;;;6.80;72.57
7333;BME280;3707;43.618;25.342;2024-01-30T11:08:44;102646.44;;;7.15;86.04
7333;BME280;3707;43.618;25.342;2024-01-30T11:11:11;102638.91;;;7.42;81.77
7333;BME280;3707;43.618;25.342;2024-01-30T11:13:38;102646.88;;;7.45;75.66
7333;BME280;3707;43.618;25.342;2024-01-30T11:16:11;102643.63;;;7.86;86.64
7333;BME280;3707;43.618;25.342;2024-01-30T11:18:38;102622.22;;;7.62;81.02
7333;BME280;3707;43.618;25.342;2024-01-30T11:21:05;102632.50;;;7.74;79.12
7333;BME280;3707;43.618;25.342;2024-01-30T11:23:34;102628.53;;;7.54;76.68
7333;BME280;3707;43.618;25.342;2024-01-30T11:26:01;102622.94;;;7.86;78.47
7333;BME280;3707;43.618;25.342;2024-01-30T11:28:32;102623.22;;;8.28;83.05
7333;BME280;3707;43.618;25.342;2024-01-30T11:31:03;102623.97;;;8.01;74.27
7333;BME280;3707;43.618;25.342;2024-01-30T11:33:31;102625.84;;;8.04;74.46
7333;BME280;3707;43.618;25.342;2024-01-30T11:36:00;102614.16;;;8.35;68.78
7333;BME280;3707;43.618;25.342;2024-01-30T11:38:28;102604.47;;;7.80;70.18
7333;BME280;3707;43.618;25.342;2024-01-30T11:40:55;102583.59;;;7.26;69.11
7333;BME280;3707;43.618;25.342;2024-01-30T11:43:23;102560.47;;;7.27;67.24
7333;BME280;3707;43.618;25.342;2024-01-30T11:45:50;102615.50;;;7.15;69.83
7333;BME280;3707;43.618;25.342;2024-01-30T11:48:18;102577.56;;;6.89;68.69
7333;BME280;3707;43.618;25.342;2024-01-30T11:50:46;102553.19;;;6.72;68.61
7333;BME280;3707;43.618;25.342;2024-01-30T11:53:13;102509.03;;;6.31;70.78
7333;BME280;3707;43.618;25.342;2024-01-30T11:55:40;102554.72;;;6.82;69.96
7333;BME280;3707;43.618;25.342;2024-01-30T11:58:07;102616.56;;;7.30;68.64
7333;BME280;3707;43.618;25.342;2024-01-30T12:00:34;102541.63;;;6.79;68.44
7333;BME280;3707;43.618;25.342;2024-01-30T12:03:01;102483.88;;;6.27;69.15
7333;BME280;3707;43.618;25.342;2024-01-30T12:05:28;102569.19;;;6.80;69.07
7333;BME280;3707;43.618;25.342;2024-01-30T12:07:56;102590.41;;;6.76;68.96
7333;BME280;3707;43.618;25.342;2024-01-30T12:10:24;102569.09;;;6.78;68.48
7333;BME280;3707;43.618;25.342;2024-01-30T12:12:51;102607.22;;;7.07;65.88
7333;BME280;3707;43.618;25.342;2024-01-30T12:15:18;102541.34;;;6.15;66.55
7333;BME280;3707;43.618;25.342;2024-01-30T12:17:47;102579.84;;;6.36;66.50
7333;BME280;3707;43.618;25.342;2024-01-30T12:20:15;102554.41;;;6.29;64.93
7333;BME280;3707;43.618;25.342;2024-01-30T12:22:44;102587.22;;;6.43;67.06
7333;BME280;3707;43.618;25.342;2024-01-30T12:25:14;102430.97;;;5.49;67.40
7333;BME280;3707;43.618;25.342;2024-01-30T12:27:43;102560.81;;;6.34;67.40
7333;BME280;3707;43.618;25.342;2024-01-30T12:30:12;102538.09;;;5.94;68.49
7333;BME280;3707;43.618;25.342;2024-01-30T12:32:40;102578.06;;;6.12;69.00
7333;BME280;3707;43.618;25.342;2024-01-30T12:35:10;102524.53;;;5.85;67.54
7333;BME280;3707;43.618;25.342;2024-01-30T12:37:37;102442.03;;;5.25;69.03
7333;BME280;3707;43.618;25.342;2024-01-30T12:40:05;102574.72;;;5.90;71.79
7333;BME280;3707;43.618;25.342;2024-01-30T12:42:34;102559.47;;;5.81;72.53
7333;BME280;3707;43.618;25.342;2024-01-30T12:45:02;102485.91;;;5.50;71.33
7333;BME280;3707;43.618;25.342;2024-01-30T12:47:29;102510.41;;;5.45;71.07
7333;BME280;3707;43.618;25.342;2024-01-30T12:49:55;102531.31;;;5.38;72.51
7333;BME280;3707;43.618;25.342;2024-01-30T12:52:22;102568.09;;;5.37;73.87
7333;BME280;3707;43.618;25.342;2024-01-30T12:54:49;102565.03;;;5.76;73.71
7333;BME280;3707;43.618;25.342;2024-01-30T12:57:17;102556.59;;;5.88;71.96
7333;BME280;3707;43.618;25.342;2024-01-30T12:59:45;102551.59;;;5.68;72.64
7333;BME280;3707;43.618;25.342;2024-01-30T13:02:13;102557.53;;;5.56;72.20
7333;BME280;3707;43.618;25.342;2024-01-30T13:04:40;102552.03;;;5.51;72.12